createdAt,value
2018-01-23T00:01:57.267Z,6.70
2018-01-23T00:04:25.420Z,6.70
2018-01-23T00:06:53.536Z,6.70
2018-01-23T00:09:22.431Z,6.70
2018-01-23T00:11:51.312Z,6.90
2018-01-23T00:14:20.230Z,6.90
2018-01-23T00:16:48.363Z,6.90
2018-01-23T00:19:16.510Z,6.70
2018-01-23T00:21:45.057Z,6.70
2018-01-23T00:24:13.966Z,6.80
2018-01-23T00:26:42.077Z,6.70
2018-01-23T00:29:10.689Z,6.70
2018-01-23T00:31:39.574Z,6.70
2018-01-23T00:34:07.725Z,6.60
2018-01-23T00:36:35.848Z,6.70
2018-01-23T00:39:04.256Z,6.80
2018-01-23T00:41:32.826Z,6.80
2018-01-23T00:44:00.978Z,6.80
2018-01-23T00:46:29.868Z,7.00
2018-01-23T00:48:58.043Z,6.90
2018-01-23T00:51:26.926Z,7.10
2018-01-23T00:53:55.858Z,7.00
2018-01-23T00:56:23.979Z,7.00
2018-01-23T00:58:52.127Z,7.00
2018-01-23T01:01:20.250Z,6.90
2018-01-23T01:03:48.392Z,6.80
2018-01-23T01:06:16.512Z,6.60
2018-01-23T01:08:44.658Z,6.60
2018-01-23T01:11:13.549Z,6.90
2018-01-23T01:13:42.466Z,6.90
2018-01-23T01:16:10.602Z,6.90
2018-01-23T01:18:38.747Z,6.90
2018-01-23T01:21:07.341Z,6.80
2018-01-23T01:23:35.484Z,6.90
2018-01-23T01:26:03.852Z,6.80
2018-01-23T01:28:32.035Z,6.90
2018-01-23T01:31:00.163Z,7.00
2018-01-23T01:33:29.073Z,6.90
2018-01-23T01:35:57.194Z,6.90
2018-01-23T01:38:25.334Z,6.80
2018-01-23T01:40:53.443Z,6.80
2018-01-23T01:43:21.575Z,6.90
2018-01-23T01:45:49.678Z,6.90
2018-01-23T01:48:17.814Z,6.90
2018-01-23T01:50:45.939Z,6.80
2018-01-23T01:53:14.079Z,6.80
2018-01-23T01:55:42.190Z,6.70
2018-01-23T01:58:10.344Z,6.70
2018-01-23T02:00:38.462Z,6.80
2018-01-23T02:03:07.367Z,6.80
2018-01-23T02:05:35.473Z,6.80
2018-01-23T02:08:03.607Z,6.90
2018-01-23T02:10:31.733Z,6.80
2018-01-23T02:12:59.876Z,6.90
2018-01-23T02:15:27.987Z,6.80
2018-01-23T02:17:56.121Z,6.80
2018-01-23T02:20:24.228Z,6.90
2018-01-23T02:22:52.387Z,6.80
2018-01-23T02:25:20.494Z,6.90
2018-01-23T02:27:48.597Z,6.90
2018-01-23T02:30:16.723Z,6.90
2018-01-23T02:32:44.833Z,6.80
2018-01-23T02:35:13.731Z,6.90
2018-01-23T02:37:41.859Z,6.90
2018-01-23T02:40:10.840Z,6.90
2018-01-23T02:42:38.959Z,6.90
2018-01-23T02:45:07.865Z,7.00
2018-01-23T02:47:35.971Z,7.00
2018-01-23T02:50:04.115Z,7.10
2018-01-23T02:52:32.235Z,6.90
2018-01-23T02:55:00.364Z,7.00
2018-01-23T02:57:28.467Z,7.00
2018-01-23T02:59:56.628Z,7.00
2018-01-23T03:02:24.752Z,6.90
2018-01-23T03:04:52.884Z,6.80
2018-01-23T03:07:20.991Z,6.80
2018-01-23T03:09:49.131Z,6.80
2018-01-23T03:12:17.230Z,6.80
2018-01-23T03:14:45.862Z,6.80
2018-01-23T03:17:13.954Z,6.80
2018-01-23T03:19:42.091Z,6.90
2018-01-23T03:22:10.198Z,6.80
2018-01-23T03:24:38.326Z,6.80
2018-01-23T03:27:07.214Z,6.90
2018-01-23T03:29:35.339Z,6.90
2018-01-23T03:32:03.764Z,6.90
2018-01-23T03:34:32.034Z,6.80
2018-01-23T03:37:00.138Z,6.80
2018-01-23T03:39:28.271Z,6.80
2018-01-23T03:41:56.378Z,6.80
2018-01-23T03:44:24.508Z,6.80
2018-01-23T03:46:52.623Z,6.80
2018-01-23T03:49:21.516Z,6.70
2018-01-23T03:51:49.633Z,6.70
2018-01-23T03:54:17.780Z,6.70
2018-01-23T03:56:45.889Z,6.60
2018-01-23T03:59:14.023Z,6.60
2018-01-23T04:01:42.125Z,6.60
2018-01-23T04:04:10.265Z,6.60
2018-01-23T04:06:38.366Z,6.60
2018-01-23T04:09:06.504Z,6.60
2018-01-23T04:11:34.606Z,6.70
2018-01-23T04:14:02.744Z,6.70
2018-01-23T04:16:30.870Z,6.80
2018-01-23T04:18:59.000Z,6.80
2018-01-23T04:21:27.099Z,6.70
2018-01-23T04:23:55.246Z,6.70
2018-01-23T04:26:23.359Z,6.80
2018-01-23T04:28:51.519Z,6.70
2018-01-23T04:31:19.633Z,6.80
2018-01-23T04:33:47.767Z,6.70
2018-01-23T04:36:15.891Z,6.80
2018-01-23T04:38:44.775Z,6.70
2018-01-23T04:41:13.638Z,6.70
2018-01-23T04:43:41.779Z,6.70
2018-01-23T04:46:09.874Z,6.70
2018-01-23T04:48:38.004Z,6.70
2018-01-23T04:51:06.619Z,6.70
2018-01-23T04:53:34.726Z,6.80
2018-01-23T04:56:03.532Z,6.70
2018-01-23T04:58:31.666Z,6.70
2018-01-23T05:00:59.798Z,6.70
2018-01-23T05:03:28.673Z,6.70
2018-01-23T05:05:57.579Z,6.80
2018-01-23T05:08:25.699Z,6.80
2018-01-23T05:10:53.823Z,6.80
2018-01-23T05:13:21.944Z,6.80
2018-01-23T05:15:50.083Z,6.80
2018-01-23T05:18:18.188Z,6.70
2018-01-23T05:20:46.318Z,6.70
2018-01-23T05:23:14.430Z,6.70
2018-01-23T05:25:42.563Z,6.80
2018-01-23T05:28:10.684Z,6.70
2018-01-23T05:30:38.812Z,6.70
2018-01-23T05:33:06.934Z,6.70
2018-01-23T05:35:35.078Z,6.70
2018-01-23T05:38:03.194Z,6.70
2018-01-23T05:40:31.317Z,6.60
2018-01-23T05:42:59.421Z,6.70
2018-01-23T05:45:27.564Z,7.00
2018-01-23T05:47:55.678Z,6.90
2018-01-23T05:50:23.807Z,6.90
2018-01-23T05:52:51.905Z,6.90
2018-01-23T05:55:20.047Z,6.90
2018-01-23T05:57:48.160Z,6.90
2018-01-23T06:00:16.315Z,6.80
2018-01-23T06:02:44.423Z,6.80
2018-01-23T06:05:12.569Z,6.80
2018-01-23T06:07:40.674Z,6.70
2018-01-23T06:10:08.862Z,6.70
2018-01-23T06:12:36.966Z,6.80
2018-01-23T06:15:05.115Z,6.90
2018-01-23T06:17:33.994Z,6.80
2018-01-23T06:20:02.345Z,6.80
2018-01-23T06:22:30.581Z,7.00
2018-01-23T06:24:58.710Z,7.00
2018-01-23T06:27:26.839Z,7.00
2018-01-23T06:29:54.967Z,7.10
2018-01-23T06:32:23.098Z,7.20
2018-01-23T06:34:51.223Z,7.10
2018-01-23T06:37:20.114Z,6.90
2018-01-23T06:39:49.015Z,7.00
2018-01-23T06:42:17.904Z,7.00
2018-01-23T06:44:46.796Z,6.90
2018-01-23T06:47:15.674Z,7.00
2018-01-23T06:49:44.575Z,7.00
2018-01-23T06:52:13.460Z,7.00
2018-01-23T06:54:42.409Z,7.00
2018-01-23T06:57:10.524Z,6.90
2018-01-23T06:59:38.656Z,7.00
2018-01-23T07:02:06.770Z,7.10
2018-01-23T07:04:35.679Z,7.00
2018-01-23T07:07:04.631Z,6.90
2018-01-23T07:09:32.767Z,6.90
2018-01-23T07:12:00.870Z,6.90
2018-01-23T07:14:29.009Z,6.90
2018-01-23T07:16:57.110Z,7.00
2018-01-23T07:19:25.238Z,6.90
2018-01-23T07:21:53.378Z,7.10
2018-01-23T07:24:21.521Z,7.20
2018-01-23T07:26:49.633Z,7.20
2018-01-23T07:29:17.740Z,7.20
2018-01-23T07:31:45.868Z,7.10
2018-01-23T07:34:13.970Z,7.10
2018-01-23T07:36:42.110Z,7.10
2018-01-23T07:39:10.275Z,7.20
2018-01-23T07:41:38.401Z,7.20
2018-01-23T07:44:06.522Z,7.10
2018-01-23T07:46:34.650Z,7.20
2018-01-23T07:49:02.762Z,7.30
2018-01-23T07:51:30.914Z,7.40
2018-01-23T07:53:59.042Z,7.30
2018-01-23T07:56:27.934Z,7.50
2018-01-23T07:58:56.058Z,7.50
2018-01-23T08:01:24.200Z,7.60
2018-01-23T08:03:52.313Z,7.60
2018-01-23T08:06:20.439Z,7.60
2018-01-23T08:08:48.558Z,7.50
2018-01-23T08:11:17.446Z,7.70
2018-01-23T08:13:45.576Z,7.70
2018-01-23T08:16:14.483Z,7.90
2018-01-23T08:18:43.062Z,7.90
2018-01-23T08:21:11.208Z,8.00
2018-01-23T08:23:40.093Z,7.80
2018-01-23T08:26:08.227Z,7.80
2018-01-23T08:28:36.341Z,8.00
2018-01-23T08:31:04.471Z,7.90
2018-01-23T08:33:32.592Z,7.90
2018-01-23T08:36:01.492Z,7.90
2018-01-23T08:38:30.371Z,8.10
2018-01-23T08:40:59.271Z,8.10
2018-01-23T08:43:28.143Z,8.00
2018-01-23T08:45:56.282Z,8.00
2018-01-23T08:48:24.398Z,8.00
2018-01-23T08:50:53.765Z,7.90
2018-01-23T08:53:21.978Z,7.90
2018-01-23T08:55:50.878Z,8.10
2018-01-23T08:58:19.749Z,8.20
2018-01-23T09:00:47.882Z,8.20
2018-01-23T09:03:15.999Z,8.20
2018-01-23T09:05:44.900Z,8.30
2018-01-23T09:08:14.250Z,8.40
2018-01-23T09:10:42.860Z,8.30
2018-01-23T09:13:10.988Z,8.30
2018-01-23T09:15:39.122Z,8.20
2018-01-23T09:18:07.362Z,8.10
2018-01-23T09:20:35.499Z,8.20
2018-01-23T09:23:03.607Z,8.30
2018-01-23T09:25:32.219Z,8.30
2018-01-23T09:28:00.331Z,8.40
2018-01-23T09:30:28.467Z,8.60
2018-01-23T09:32:56.590Z,8.60
2018-01-23T09:35:24.710Z,8.70
2018-01-23T09:37:52.836Z,8.70
2018-01-23T09:40:20.968Z,8.90
2018-01-23T09:42:49.093Z,8.90
2018-01-23T09:45:17.226Z,9.00
2018-01-23T09:47:46.089Z,9.10
2018-01-23T09:50:14.237Z,9.10
2018-01-23T09:52:42.348Z,9.20
2018-01-23T09:55:10.486Z,9.20
2018-01-23T09:57:38.613Z,9.10
2018-01-23T10:00:07.491Z,9.20
2018-01-23T10:02:39.388Z,9.20
2018-01-23T10:05:07.494Z,9.30
2018-01-23T10:07:35.639Z,9.40
2018-01-23T10:10:03.746Z,9.50
2018-01-23T10:12:31.901Z,9.50
2018-01-23T10:15:00.025Z,9.40
2018-01-23T10:17:28.924Z,9.60
2018-01-23T10:19:57.034Z,9.60
2018-01-23T10:22:25.170Z,9.50
2018-01-23T10:24:53.281Z,9.50
2018-01-23T10:45:21.828Z,9.90
2018-01-23T10:47:50.732Z,10.00
2018-01-23T10:50:19.618Z,10.30
2018-01-23T10:52:47.768Z,10.30
2018-01-23T10:55:15.886Z,10.40
2018-01-23T10:57:44.039Z,10.50
2018-01-23T11:00:12.910Z,10.70
2018-01-23T11:02:41.057Z,10.70
2018-01-23T11:05:09.176Z,10.50
2018-01-23T11:07:38.079Z,10.80
2018-01-23T11:10:06.240Z,10.80
2018-01-23T11:12:35.154Z,11.20
2018-01-23T11:15:04.057Z,11.20
2018-01-23T11:17:32.545Z,11.10
2018-01-23T11:20:00.947Z,10.90
2018-01-23T11:22:29.153Z,10.90
2018-01-23T11:24:58.042Z,10.90
2018-01-23T11:27:26.943Z,10.80
2018-01-23T11:29:55.827Z,11.00
2018-01-23T11:32:24.742Z,10.90
2018-01-23T11:34:52.847Z,10.90
2018-01-23T11:37:20.999Z,10.70
2018-01-23T11:39:49.119Z,10.50
2018-01-23T11:42:17.255Z,10.50
2018-01-23T11:44:45.417Z,10.50
2018-01-23T11:47:13.561Z,10.40
2018-01-23T11:49:42.462Z,10.50
2018-01-23T11:52:10.608Z,10.50
2018-01-23T11:54:38.731Z,10.50
2018-01-23T11:57:06.878Z,10.50
2018-01-23T11:59:35.760Z,10.40
2018-01-23T12:02:04.661Z,10.30
2018-01-23T12:04:33.589Z,10.40
2018-01-23T12:07:01.956Z,10.30
2018-01-23T12:09:31.128Z,10.40
2018-01-23T12:12:00.034Z,10.30
2018-01-23T12:14:28.277Z,10.30
2018-01-23T12:16:56.429Z,10.30
2018-01-23T12:19:24.539Z,10.30
2018-01-23T12:21:53.453Z,10.30
2018-01-23T12:24:21.564Z,10.30
2018-01-23T12:26:49.711Z,10.30
2018-01-23T12:29:17.837Z,10.40
2018-01-23T12:31:46.747Z,10.20
2018-01-23T12:34:14.857Z,10.20
2018-01-23T12:36:43.015Z,10.00
2018-01-23T12:39:11.130Z,10.20
2018-01-23T12:41:39.730Z,10.20
2018-01-23T12:44:07.834Z,10.10
2018-01-23T12:46:35.975Z,10.20
2018-01-23T12:49:04.850Z,9.80
2018-01-23T12:51:32.992Z,9.80
2018-01-23T12:54:01.107Z,9.80
2018-01-23T12:56:29.235Z,9.90
2018-01-23T12:58:57.356Z,10.00
2018-01-23T13:01:26.265Z,10.00
2018-01-23T13:03:55.143Z,9.90
2018-01-23T13:06:24.045Z,9.90
2018-01-23T13:08:52.915Z,9.80
2018-01-23T13:11:21.047Z,9.80
2018-01-23T13:13:49.154Z,9.80
2018-01-23T13:16:17.300Z,9.80
2018-01-23T13:18:45.411Z,9.80
2018-01-23T13:21:13.517Z,9.80
2018-01-23T13:23:41.662Z,9.60
2018-01-23T13:26:10.543Z,9.60
2018-01-23T13:28:38.672Z,9.70
2018-01-23T13:31:06.793Z,9.60
2018-01-23T13:33:35.707Z,9.80
2018-01-23T13:36:04.576Z,9.70
2018-01-23T13:38:32.707Z,9.60
2018-01-23T13:41:01.582Z,9.70
2018-01-23T13:43:29.724Z,9.70
2018-01-23T13:45:58.596Z,9.80
2018-01-23T13:48:26.744Z,9.80
2018-01-23T13:50:54.842Z,9.70
2018-01-23T13:53:22.979Z,9.70
2018-01-23T13:55:51.977Z,9.70
2018-01-23T13:58:20.155Z,9.70
2018-01-23T14:00:48.242Z,9.50
2018-01-23T14:03:16.380Z,9.40
2018-01-23T14:05:44.487Z,9.30
2018-01-23T14:08:12.627Z,9.50
2018-01-23T14:10:40.733Z,9.50
2018-01-23T14:13:08.864Z,9.60
2018-01-23T14:15:36.974Z,9.60
2018-01-23T14:18:05.166Z,9.60
2018-01-23T14:20:33.268Z,9.60
2018-01-23T14:23:01.413Z,9.50
2018-01-23T14:25:29.513Z,9.50
2018-01-23T14:27:57.660Z,9.30
2018-01-23T14:30:25.782Z,9.30
2018-01-23T14:32:53.931Z,9.20
2018-01-23T14:35:22.094Z,9.20
2018-01-23T14:37:50.202Z,9.30
2018-01-23T14:40:19.346Z,9.30
2018-01-23T14:42:47.487Z,9.30
2018-01-23T14:45:15.591Z,9.30
2018-01-23T14:47:43.723Z,9.20
2018-01-23T14:50:11.846Z,9.10
2018-01-23T14:52:39.980Z,9.00
2018-01-23T14:55:08.094Z,9.00
2018-01-23T14:57:36.223Z,8.90
2018-01-23T15:00:04.330Z,9.00
2018-01-23T15:02:37.358Z,8.90
2018-01-23T15:05:05.566Z,8.90
2018-01-23T15:07:33.695Z,8.90
2018-01-23T15:10:01.813Z,8.90
2018-01-23T15:12:29.953Z,8.90
2018-01-23T15:14:58.062Z,9.00
2018-01-23T15:17:26.222Z,8.90
2018-01-23T15:19:54.327Z,8.90
2018-01-23T15:22:22.462Z,8.90
2018-01-23T15:24:50.556Z,8.80
2018-01-23T15:27:18.691Z,8.90
2018-01-23T15:29:46.795Z,8.80
2018-01-23T15:32:14.928Z,8.80
2018-01-23T15:34:43.036Z,8.80
2018-01-23T15:37:11.171Z,8.80
2018-01-23T15:39:39.303Z,8.80
2018-01-23T15:42:07.447Z,8.80
2018-01-23T15:44:35.564Z,8.80
2018-01-23T15:47:04.046Z,8.60
2018-01-23T15:49:32.215Z,8.60
2018-01-23T15:52:00.362Z,8.50
2018-01-23T15:54:28.495Z,8.50
2018-01-23T15:56:56.626Z,8.50
2018-01-23T15:59:24.765Z,8.50
2018-01-23T16:01:53.394Z,8.50
2018-01-23T16:04:21.547Z,8.50
2018-01-23T16:06:49.653Z,8.60
2018-01-23T16:09:18.552Z,8.60
2018-01-23T16:11:47.431Z,8.50
2018-01-23T16:14:16.364Z,8.50
2018-01-23T16:16:44.480Z,8.50
2018-01-23T16:19:12.620Z,8.50
2018-01-23T16:21:40.750Z,8.50
2018-01-23T16:24:09.737Z,8.40
2018-01-23T16:26:37.838Z,8.40
2018-01-23T16:29:05.998Z,8.30
2018-01-23T16:31:34.873Z,8.20
2018-01-23T16:34:03.583Z,8.20
2018-01-23T16:36:32.452Z,8.20
2018-01-23T16:39:00.573Z,8.20
2018-01-23T16:41:28.700Z,8.20
2018-01-23T16:43:57.707Z,8.20
2018-01-23T16:46:26.573Z,8.00
2018-01-23T16:48:54.704Z,8.00
2018-01-23T16:51:22.807Z,7.90
2018-01-23T16:53:50.951Z,8.00
2018-01-23T16:56:21.116Z,8.00
2018-01-23T16:58:49.254Z,8.00
2018-01-23T17:01:17.375Z,7.90
2018-01-23T17:03:46.266Z,8.00
2018-01-23T17:06:15.151Z,8.00
2018-01-23T17:08:43.289Z,8.00
2018-01-23T17:11:11.396Z,8.10
2018-01-23T17:13:39.598Z,8.10
2018-01-23T17:16:07.715Z,8.20
2018-01-23T17:18:35.847Z,8.10
2018-01-23T17:21:04.211Z,8.10
2018-01-23T17:23:32.393Z,8.00
2018-01-23T17:26:00.502Z,8.00
2018-01-23T17:28:28.640Z,8.00
2018-01-23T17:30:56.734Z,8.00
2018-01-23T17:33:24.871Z,8.00
2018-01-23T17:35:53.756Z,7.70
2018-01-23T17:38:22.650Z,7.70
2018-01-23T17:40:51.548Z,7.70
2018-01-23T17:43:20.460Z,7.60
2018-01-23T17:45:48.558Z,7.60
2018-01-23T17:48:16.692Z,7.70
2018-01-23T17:50:45.595Z,7.60
2018-01-23T17:53:13.735Z,7.60
2018-01-23T17:55:41.856Z,7.60
2018-01-23T17:58:09.986Z,7.60
2018-01-23T18:00:38.862Z,7.60
2018-01-23T18:03:06.999Z,7.60
2018-01-23T18:05:35.112Z,7.60
2018-01-23T18:08:03.562Z,7.60
2018-01-23T18:10:31.954Z,7.50
2018-01-23T18:13:00.090Z,7.50
2018-01-23T18:15:28.994Z,7.50
2018-01-23T18:17:57.235Z,7.50
2018-01-23T18:20:26.580Z,7.60
2018-01-23T18:22:54.760Z,7.60
2018-01-23T18:25:24.322Z,7.60
2018-01-23T18:27:53.699Z,7.50
2018-01-23T18:30:23.444Z,7.50
2018-01-23T18:32:52.447Z,7.50
2018-01-23T18:35:20.642Z,7.50
2018-01-23T18:37:48.781Z,7.50
2018-01-23T18:40:17.045Z,7.40
2018-01-23T18:42:45.324Z,7.40
2018-01-23T18:45:13.455Z,7.40
2018-01-23T18:47:41.569Z,7.50
2018-01-23T18:50:11.824Z,7.40
2018-01-23T18:52:40.560Z,7.30
2018-01-23T18:55:08.821Z,7.30
2018-01-23T18:57:37.042Z,7.30
2018-01-23T19:00:05.747Z,7.30
2018-01-23T19:02:37.614Z,7.20
2018-01-23T19:05:05.842Z,7.30
2018-01-23T19:07:34.088Z,7.30
2018-01-23T19:10:02.854Z,7.30
2018-01-23T19:12:31.071Z,7.30
2018-01-23T19:14:59.393Z,7.30
2018-01-23T19:17:27.682Z,7.30
2018-01-23T19:19:56.878Z,7.30
2018-01-23T19:22:25.746Z,7.30
2018-01-23T19:24:54.360Z,7.30
2018-01-23T19:27:22.547Z,7.20
2018-01-23T19:29:50.690Z,7.20
2018-01-23T19:32:18.847Z,7.10
2018-01-23T19:34:47.571Z,7.10
2018-01-23T19:37:16.450Z,7.10
2018-01-23T19:39:45.507Z,7.10
2018-01-23T19:42:14.511Z,7.10
2018-01-23T19:44:42.754Z,7.10
2018-01-23T19:47:10.996Z,7.10
2018-01-23T19:49:41.312Z,7.10
2018-01-23T19:52:09.833Z,7.10
2018-01-23T19:54:38.626Z,7.10
2018-01-23T19:57:08.851Z,7.20
2018-01-23T19:59:36.974Z,7.20
2018-01-23T20:02:05.511Z,7.20
2018-01-23T20:04:33.719Z,7.30
2018-01-23T20:07:01.943Z,7.50
2018-01-23T20:09:30.852Z,7.50
2018-01-23T20:14:33.722Z,7.60
2018-01-23T20:17:02.669Z,7.50
2018-01-23T20:19:31.651Z,7.50
2018-01-23T20:21:59.778Z,7.50
2018-01-23T20:24:28.695Z,7.40
2018-01-23T20:26:57.266Z,7.40
2018-01-23T20:29:26.224Z,7.40
2018-01-23T20:31:55.115Z,7.40
2018-01-23T20:34:23.297Z,7.40
2018-01-23T20:36:51.495Z,7.50
2018-01-23T20:39:20.435Z,7.70
2018-01-23T20:41:48.646Z,7.70
2018-01-23T20:44:16.802Z,7.70
2018-01-23T20:46:44.902Z,7.70
2018-01-23T20:49:13.279Z,7.80
2018-01-23T20:51:42.180Z,7.70
2018-01-23T20:54:11.083Z,7.80
2018-01-23T20:56:39.958Z,7.80
2018-01-23T20:59:08.100Z,7.80
2018-01-23T21:01:36.193Z,7.80
2018-01-23T21:04:04.474Z,7.80
2018-01-23T21:06:32.602Z,7.90
2018-01-23T21:09:00.738Z,8.00
2018-01-23T21:11:29.648Z,8.00
2018-01-23T21:13:58.528Z,8.00
2018-01-23T21:16:27.409Z,8.00
2018-01-23T21:18:55.551Z,8.00
2018-01-23T21:21:23.658Z,8.10
2018-01-23T21:23:52.576Z,8.20
2018-01-23T21:26:20.683Z,8.20
2018-01-23T21:28:48.811Z,8.20
2018-01-23T21:31:16.993Z,8.10
2018-01-23T21:33:45.099Z,8.00
2018-01-23T21:36:13.223Z,8.10
2018-01-23T21:38:42.110Z,8.10
2018-01-23T21:41:11.010Z,8.10
2018-01-23T21:43:39.126Z,8.10
2018-01-23T21:46:07.296Z,8.20
2018-01-23T21:48:35.427Z,8.20
2018-01-23T21:51:04.337Z,8.20
2018-01-23T21:53:32.446Z,8.20
2018-01-23T21:56:00.583Z,8.00
2018-01-23T21:58:29.293Z,7.90
2018-01-23T22:00:57.431Z,7.80
2018-01-23T22:03:25.540Z,7.80
2018-01-23T22:05:53.670Z,7.80
2018-01-23T22:08:21.933Z,7.80
2018-01-23T22:10:50.063Z,7.80
2018-01-23T22:13:18.186Z,7.80
2018-01-23T22:15:47.099Z,7.80
2018-01-23T22:18:15.224Z,7.80
2018-01-23T22:20:43.353Z,7.90
2018-01-23T22:23:11.471Z,8.00
2018-01-23T22:25:39.611Z,7.90
2018-01-23T22:28:07.716Z,7.90
2018-01-23T22:30:35.849Z,7.60
2018-01-23T22:33:04.522Z,7.80
2018-01-23T22:35:32.722Z,8.00
2018-01-23T22:38:00.831Z,8.00
2018-01-23T22:40:28.968Z,7.80
2018-01-23T22:42:57.074Z,7.90
2018-01-23T22:45:25.551Z,7.90
2018-01-23T22:47:54.726Z,7.90
2018-01-23T22:50:23.101Z,8.00
2018-01-23T22:52:51.246Z,7.90
2018-01-23T22:55:19.389Z,8.00
2018-01-23T22:57:47.482Z,8.10
2018-01-23T23:00:15.625Z,8.30
2018-01-23T23:02:43.730Z,8.20
2018-01-23T23:05:11.875Z,8.20
2018-01-23T23:07:39.976Z,8.30
2018-01-23T23:10:08.147Z,8.30
2018-01-23T23:12:37.016Z,8.60
2018-01-23T23:15:06.044Z,8.50
2018-01-23T23:17:34.679Z,8.40
2018-01-23T23:20:02.819Z,8.50
2018-01-23T23:22:30.931Z,8.30
2018-01-23T23:24:59.522Z,8.40
2018-01-23T23:27:27.627Z,8.30
2018-01-23T23:29:55.780Z,8.40
2018-01-23T23:32:23.886Z,8.40
2018-01-23T23:34:52.018Z,8.50
2018-01-23T23:37:20.626Z,8.50
2018-01-23T23:39:48.755Z,8.50
2018-01-23T23:42:16.897Z,8.40
2018-01-23T23:44:45.025Z,8.50
2018-01-23T23:47:13.165Z,8.50
2018-01-23T23:49:42.200Z,8.30
2018-01-23T23:52:11.124Z,8.40
2018-01-23T23:54:39.322Z,8.40
2018-01-23T23:57:07.466Z,8.40
2018-01-23T23:59:35.826Z,8.30
